Time;durP1;ratioP1;P1;durP2;ratioP2;P2;SDS_P1;SDS_P2;PMS_P1;PMS_P2;Temp;Humidity;BMP_temperature;BMP_pressure;BME280_temperature;BME280_humidity;BME280_pressure;Samples;Min_cycle;Max_cycle;Signal;HPM_P1;HPM_P2
2022/04/08 00:00:57;;;;;;;9.27;4.80;;;11.10;99.90;;;;;;4992824;28;20018;-46
2022/04/08 00:03:23;;;;;;;7.97;4.55;;;11.20;99.90;;;;;;4992325;28;20034;-47
2022/04/08 00:05:49;;;;;;;6.30;4.78;;;11.20;99.90;;;;;;4995322;28;20406;-47
2022/04/08 00:08:15;;;;;;;6.63;4.15;;;11.40;99.90;;;;;;4978486;28;20096;-47
2022/04/08 00:10:40;;;;;;;6.75;4.60;;;11.30;99.90;;;;;;4977768;28;20053;-47
2022/04/08 00:13:06;;;;;;;7.93;4.15;;;11.30;99.90;;;;;;4995579;28;20049;-48
2022/04/08 00:15:33;;;;;;;6.38;3.90;;;11.20;99.90;;;;;;4977813;28;20070;-46
2022/04/08 00:17:59;;;;;;;6.32;4.70;;;11.10;99.90;;;;;;4994543;28;20462;-47
2022/04/08 00:20:26;;;;;;;8.38;5.35;;;11.10;99.90;;;;;;4996156;28;20117;-49
2022/04/08 00:22:52;;;;;;;11.85;5.93;;;11.10;99.90;;;;;;4995848;28;20050;-47
2022/04/08 00:25:18;;;;;;;25.63;12.05;;;11.20;99.90;;;;;;4995483;28;20547;-47
2022/04/08 00:27:44;;;;;;;22.83;10.90;;;11.40;99.90;;;;;;4996056;28;20030;-47
2022/04/08 00:30:10;;;;;;;22.15;10.80;;;11.60;99.90;;;;;;4993403;28;20520;-47
2022/04/08 00:32:36;;;;;;;14.52;8.73;;;;;;;;;;4991824;28;20050;-47
2022/04/08 00:35:02;;;;;;;15.50;7.03;;;12.00;99.90;;;;;;4995183;28;20022;-48
2022/04/08 00:37:27;;;;;;;14.10;6.40;;;12.20;99.90;;;;;;5001045;28;20038;-47
2022/04/08 00:39:54;;;;;;;8.10;5.63;;;12.20;99.90;;;;;;4995653;28;20422;-49
2022/04/08 00:42:19;;;;;;;7.63;5.05;;;12.10;99.90;;;;;;4973928;28;20050;-47
2022/04/08 00:44:45;;;;;;;6.65;4.63;;;12.00;99.90;;;;;;4972442;28;20381;-47
2022/04/08 00:47:11;;;;;;;7.85;5.57;;;12.00;99.90;;;;;;4995132;28;20042;-48
2022/04/08 00:49:38;;;;;;;8.20;4.60;;;12.10;99.90;;;;;;4995527;28;20037;-48
2022/04/08 00:52:04;;;;;;;4.43;3.92;;;11.90;99.90;;;;;;4995468;28;20081;-47
2022/04/08 00:54:31;;;;;;;9.18;4.40;;;11.80;99.90;;;;;;4975845;28;20402;-48
2022/04/08 00:56:57;;;;;;;5.00;3.97;;;11.60;99.90;;;;;;4993853;28;20129;-47
2022/04/08 00:59:27;;;;;;;5.05;4.18;;;11.60;99.90;;;;;;4995090;28;20089;-47
2022/04/08 01:01:53;;;;;;;6.85;4.30;;;11.50;99.90;;;;;;4995132;28;20026;-46
2022/04/08 01:04:21;;;;;;;7.47;3.95;;;11.40;99.90;;;;;;4995648;28;20378;-47
2022/04/08 01:06:47;;;;;;;5.70;4.22;;;11.40;99.90;;;;;;4991980;28;20474;-47
2022/04/08 01:09:14;;;;;;;22.40;8.55;;;11.60;99.90;;;;;;4970208;28;20125;-46
2022/04/08 01:11:42;;;;;;;11.30;7.13;;;11.80;99.90;;;;;;4967218;28;20050;-47
2022/04/08 01:14:13;;;;;;;9.52;6.53;;;11.80;99.90;;;;;;4992437;28;20486;-46
2022/04/08 01:16:39;;;;;;;7.45;5.63;;;11.90;99.90;;;;;;4990399;28;20073;-46
2022/04/08 01:19:05;;;;;;;24.77;11.43;;;11.90;99.90;;;;;;4995416;28;20034;-47
2022/04/08 01:21:31;;;;;;;34.55;19.45;;;12.10;99.90;;;;;;4960120;28;20034;-46
2022/04/08 01:23:58;;;;;;;11.18;6.97;;;12.00;99.90;;;;;;4994687;28;20113;-47
2022/04/08 01:26:25;;;;;;;8.65;5.20;;;12.00;99.90;;;;;;4994374;28;20038;-47
2022/04/08 01:28:55;;;;;;;12.60;6.30;;;12.00;99.90;;;;;;4994773;28;20126;-47
2022/04/08 01:31:24;;;;;;;7.72;5.55;;;12.00;99.90;;;;;;4994196;28;20034;-48
2022/04/08 01:33:51;;;;;;;7.13;6.35;;;11.80;99.90;;;;;;4994012;28;20471;-47
2022/04/08 01:36:17;;;;;;;8.07;5.93;;;11.90;99.90;;;;;;4995264;28;20035;-46
2022/04/08 01:38:43;;;;;;;9.15;4.90;;;11.80;99.90;;;;;;4994171;28;20038;-46
2022/04/08 01:41:09;;;;;;;7.15;5.15;;;11.80;99.90;;;;;;4976116;28;20256;-47
2022/04/08 01:43:35;;;;;;;7.63;5.20;;;11.90;99.90;;;;;;4997431;28;20041;-46
2022/04/08 01:46:01;;;;;;;8.68;5.47;;;12.00;99.90;;;;;;4993886;28;20063;-46
2022/04/08 01:48:27;;;;;;;10.63;5.57;;;11.90;99.90;;;;;;4995540;28;20390;-47
2022/04/08 01:50:53;;;;;;;5.80;4.50;;;11.90;99.90;;;;;;4994694;28;20471;-46
2022/04/08 01:53:18;;;;;;;7.18;4.68;;;11.50;99.90;;;;;;4994018;28;20033;-46
2022/04/08 01:55:45;;;;;;;4.88;4.10;;;11.50;99.90;;;;;;4993681;28;20034;-46
2022/04/08 01:58:10;;;;;;;8.68;4.63;;;11.50;99.90;;;;;;4991918;28;20069;-46
2022/04/08 02:00:37;;;;;;;9.32;4.30;;;11.50;99.90;;;;;;4993935;28;20057;-48
2022/04/08 02:03:03;;;;;;;5.70;4.28;;;11.40;99.90;;;;;;4994425;28;20038;-46
2022/04/08 02:05:29;;;;;;;5.75;4.57;;;11.40;99.90;;;;;;4993557;28;20383;-48
2022/04/08 02:07:54;;;;;;;6.63;4.68;;;11.10;99.90;;;;;;4970734;28;20058;-46
2022/04/08 02:10:21;;;;;;;5.97;4.05;;;10.90;99.90;;;;;;4991777;28;20125;-46
2022/04/08 02:12:47;;;;;;;4.75;3.97;;;10.70;99.90;;;;;;4993469;28;20089;-47
2022/04/08 02:15:12;;;;;;;5.88;4.30;;;10.40;99.90;;;;;;4981402;28;20051;-47
2022/04/08 02:17:38;;;;;;;8.57;4.68;;;10.30;99.90;;;;;;4981520;28;20069;-47
2022/04/08 02:20:08;;;;;;;8.07;5.70;;;10.00;99.90;;;;;;4993454;28;20034;-48
2022/04/08 02:22:35;;;;;;;8.68;4.95;;;9.90;99.90;;;;;;4993306;28;20486;-47
2022/04/08 02:25:05;;;;;;;7.03;4.90;;;9.80;99.90;;;;;;4994157;28;20073;-47
2022/04/08 02:27:32;;;;;;;6.07;4.55;;;9.70;99.90;;;;;;4993001;28;20386;-47
2022/04/08 02:29:58;;;;;;;7.68;5.15;;;9.70;99.90;;;;;;4993969;28;20070;-48
2022/04/08 02:32:24;;;;;;;7.30;5.13;;;9.60;99.90;;;;;;4974253;28;20065;-47
2022/04/08 02:34:51;;;;;;;7.75;5.50;;;9.70;99.90;;;;;;4993317;28;20030;-47
2022/04/08 02:37:17;;;;;;;7.82;5.45;;;9.80;99.90;;;;;;4993121;28;20038;-47
2022/04/08 02:39:43;;;;;;;8.15;5.30;;;9.90;99.90;;;;;;4993712;28;20037;-49
2022/04/08 02:42:09;;;;;;;6.75;5.60;;;10.00;99.90;;;;;;4992652;28;20121;-47
2022/04/08 02:44:35;;;;;;;7.63;6.10;;;10.20;99.90;;;;;;4993142;28;20030;-47
2022/04/08 02:47:01;;;;;;;8.52;6.10;;;10.30;99.90;;;;;;4994658;28;20045;-47
2022/04/08 02:49:26;;;;;;;7.53;5.75;;;10.30;99.90;;;;;;4990292;28;20038;-47
2022/04/08 02:51:53;;;;;;;8.77;6.72;;;10.50;99.90;;;;;;4984602;28;20055;-47
2022/04/08 02:54:19;;;;;;;8.93;6.57;;;10.60;99.90;;;;;;4993030;28;20037;-48
2022/04/08 02:56:45;;;;;;;6.55;5.65;;;10.70;99.90;;;;;;4970237;28;20043;-48
2022/04/08 02:59:10;;;;;;;7.22;5.13;;;10.80;99.90;;;;;;4993651;28;20418;-48
2022/04/08 03:01:36;;;;;;;7.35;4.78;;;10.60;99.90;;;;;;4991197;28;20043;-47
2022/04/08 03:04:05;;;;;;;6.10;3.80;;;10.10;99.90;;;;;;4990214;28;20125;-48
2022/04/08 03:06:32;;;;;;;7.80;4.88;;;9.90;99.90;;;;;;4975956;28;20513;-48
2022/04/08 03:08:58;;;;;;;7.88;5.95;;;9.50;99.90;;;;;;4992527;28;20037;-47
2022/04/08 03:11:23;;;;;;;7.85;5.75;;;9.50;99.90;;;;;;4992801;28;20132;-48
2022/04/08 03:13:49;;;;;;;9.60;6.10;;;9.60;99.90;;;;;;4992701;28;20026;-48
2022/04/08 03:16:15;;;;;;;7.55;5.50;;;9.90;99.90;;;;;;4990378;28;20552;-48
2022/04/08 03:18:41;;;;;;;5.65;4.45;;;9.90;99.90;;;;;;4979338;28;20038;-48
2022/04/08 03:21:06;;;;;;;5.80;4.13;;;9.90;99.90;;;;;;4993230;28;20156;-48
2022/04/08 03:23:32;;;;;;;6.78;5.35;;;9.90;99.90;;;;;;4989370;28;20042;-47
2022/04/08 03:25:58;;;;;;;7.00;3.80;;;9.90;99.90;;;;;;4992771;28;20114;-48
2022/04/08 03:28:24;;;;;;;5.35;3.83;;;10.00;99.90;;;;;;4992696;28;20038;-47
2022/04/08 03:30:49;;;;;;;6.07;4.20;;;10.20;99.90;;;;;;4993343;28;20026;-50
2022/04/08 03:33:15;;;;;;;6.10;4.53;;;10.30;99.90;;;;;;4992697;28;20105;-47
2022/04/08 03:35:41;;;;;;;5.80;4.72;;;10.40;99.90;;;;;;4990757;28;20126;-47
2022/04/08 03:38:06;;;;;;;6.82;5.10;;;10.40;99.90;;;;;;4992333;28;20046;-47
2022/04/08 03:40:35;;;;;;;6.60;5.25;;;10.50;99.90;;;;;;4996215;28;20125;-47
2022/04/08 03:43:02;;;;;;;7.97;5.43;;;10.70;99.90;;;;;;4996940;28;20038;-47
2022/04/08 03:45:27;;;;;;;7.25;4.60;;;10.80;99.90;;;;;;4996251;28;20038;-47
2022/04/08 03:47:53;;;;;;;6.30;4.38;;;10.90;99.90;;;;;;4996748;28;20026;-51
2022/04/08 03:50:19;;;;;;;6.00;4.38;;;11.00;99.90;;;;;;4996191;28;20022;-47
2022/04/08 03:52:45;;;;;;;8.40;5.40;;;11.00;99.90;;;;;;4996209;28;20041;-47
2022/04/08 03:55:11;;;;;;;11.32;5.68;;;10.90;99.90;;;;;;4978059;28;20042;-47
2022/04/08 03:57:36;;;;;;;8.98;5.25;;;11.00;99.90;;;;;;5010964;28;20041;-47
2022/04/08 04:00:04;;;;;;;4.75;3.17;;;11.00;99.90;;;;;;4995784;28;20022;-47
2022/04/08 04:02:29;;;;;;;7.63;4.82;;;10.90;99.90;;;;;;4934785;28;20050;-47
2022/04/08 04:04:59;;;;;;;8.52;6.20;;;10.60;99.90;;;;;;4989907;28;20038;-47
2022/04/08 04:07:26;;;;;;;12.52;8.23;;;10.30;99.90;;;;;;4995901;28;20042;-47
2022/04/08 04:09:52;;;;;;;15.90;10.75;;;10.00;99.90;;;;;;4995068;28;20112;-47
2022/04/08 04:12:18;;;;;;;12.27;9.40;;;9.90;99.90;;;;;;4961114;28;20053;-48
2022/04/08 04:14:44;;;;;;;12.10;7.53;;;10.10;99.90;;;;;;4964022;28;20070;-47
2022/04/08 04:17:10;;;;;;;11.98;7.05;;;10.30;99.90;;;;;;4990767;28;20070;-47
2022/04/08 04:19:36;;;;;;;22.35;13.25;;;10.20;99.90;;;;;;4993657;28;20034;-48
2022/04/08 04:22:02;;;;;;;19.08;11.73;;;10.10;99.90;;;;;;4993855;28;20566;-49
2022/04/08 04:24:28;;;;;;;10.80;7.43;;;10.20;99.90;;;;;;4991636;28;20038;-47
2022/04/08 04:26:54;;;;;;;10.90;7.25;;;10.20;99.90;;;;;;4993899;28;20169;-47
2022/04/08 04:29:19;;;;;;;16.67;9.52;;;10.20;99.90;;;;;;4960660;28;20490;-47
2022/04/08 04:31:45;;;;;;;11.38;8.15;;;10.40;99.90;;;;;;4994846;28;20485;-47
2022/04/08 04:34:11;;;;;;;9.90;6.50;;;10.70;99.90;;;;;;4974463;28;20034;-47
2022/04/08 04:36:37;;;;;;;8.05;6.07;;;11.00;99.90;;;;;;4994232;28;20038;-47
2022/04/08 04:39:03;;;;;;;8.52;5.60;;;11.20;99.90;;;;;;4974103;28;20479;-47
2022/04/08 04:41:29;;;;;;;7.50;5.60;;;11.40;99.90;;;;;;4992007;28;20022;-47
2022/04/08 04:43:54;;;;;;;10.52;8.32;;;11.50;99.90;;;;;;4986598;28;20053;-47
2022/04/08 04:46:20;;;;;;;9.38;7.55;;;11.50;99.90;;;;;;4988147;28;20062;-47
2022/04/08 04:48:47;;;;;;;14.50;9.90;;;11.20;99.90;;;;;;4997759;28;20141;-47
2022/04/08 04:51:16;;;;;;;12.02;7.47;;;11.10;99.90;;;;;;4971944;28;20061;-47
2022/04/08 04:53:42;;;;;;;14.38;8.05;;;11.30;99.90;;;;;;4990667;28;20721;-47
2022/04/08 04:56:08;;;;;;;11.73;7.60;;;11.40;99.90;;;;;;4991491;28;20030;-47
2022/04/08 04:58:34;;;;;;;18.10;11.52;;;11.70;99.90;;;;;;4991078;28;20033;-47
2022/04/08 05:01:00;;;;;;;15.18;11.07;;;11.80;99.90;;;;;;4991175;28;20474;-47
2022/04/08 05:03:26;;;;;;;13.90;10.77;;;;;;;;;;4993098;28;20026;-49
2022/04/08 05:05:53;;;;;;;15.77;11.18;;;12.00;99.90;;;;;;4989321;28;20522;-47
2022/04/08 05:08:20;;;;;;;14.95;10.25;;;12.00;99.90;;;;;;4989925;28;20157;-47
2022/04/08 05:10:47;;;;;;;23.27;10.40;;;;;;;;;;4992643;28;20048;-48
2022/04/08 05:13:13;;;;;;;13.77;7.95;;;12.30;99.90;;;;;;4993396;28;20040;-52
2022/04/08 05:15:42;;;;;;;10.43;6.60;;;12.40;99.90;;;;;;4990808;28;20391;-47
2022/04/08 05:18:09;;;;;;;12.90;6.53;;;12.50;99.90;;;;;;4992822;28;20061;-49
2022/04/08 05:20:35;;;;;;;20.15;10.25;;;12.60;99.90;;;;;;4992462;28;20085;-47
2022/04/08 05:23:01;;;;;;;16.77;8.20;;;12.80;99.90;;;;;;4992447;28;20058;-48
2022/04/08 05:25:27;;;;;;;20.52;8.90;;;;;;;;;;4945089;28;20080;-49
2022/04/08 05:27:53;;;;;;;20.70;10.77;;;12.90;99.90;;;;;;4992338;28;20041;-49
2022/04/08 05:30:19;;;;;;;26.83;17.85;;;13.00;99.90;;;;;;4990579;28;20026;-48
2022/04/08 05:32:48;;;;;;;51.33;38.42;;;13.20;99.90;;;;;;4992859;28;20046;-48
2022/04/08 05:35:15;;;;;;;51.92;34.28;;;13.30;99.90;;;;;;4992615;28;20050;-50
2022/04/08 05:37:42;;;;;;;53.63;31.55;;;;;;;;;;4977475;28;20465;-50
2022/04/08 05:40:26;;;;;;;30.70;21.13;;;13.70;99.90;;;;;;4975050;28;20034;-50
2022/04/08 05:42:52;;;;;;;26.83;17.52;;;13.70;99.90;;;;;;4973068;28;20034;-49
2022/04/08 05:45:21;;;;;;;27.00;12.77;;;13.80;99.90;;;;;;4986983;28;20038;-48
2022/04/08 05:47:47;;;;;;;19.83;12.10;;;14.00;99.90;;;;;;4974944;28;20045;-49
2022/04/08 05:50:14;;;;;;;19.17;9.63;;;13.90;99.90;;;;;;4972182;28;20067;-48
2022/04/08 05:52:41;;;;;;;16.63;9.85;;;13.90;99.90;;;;;;4974351;28;20046;-49
2022/04/08 05:55:07;;;;;;;16.60;8.48;;;14.00;99.90;;;;;;4974505;28;20081;-48
2022/04/08 05:57:35;;;;;;;12.88;7.00;;;14.30;99.90;;;;;;4974498;28;20050;-47
2022/04/08 06:00:01;;;;;;;10.52;6.70;;;14.60;99.90;;;;;;4974183;28;20515;-49
2022/04/08 06:02:27;;;;;;;14.55;6.15;;;14.70;99.90;;;;;;4974653;28;20035;-49
2022/04/08 06:04:52;;;;;;;7.55;5.25;;;14.70;99.90;;;;;;4974543;28;20038;-48
2022/04/08 06:07:18;;;;;;;13.30;5.55;;;14.70;99.90;;;;;;4987957;28;20156;-50
2022/04/08 06:09:44;;;;;;;8.45;4.45;;;14.80;99.90;;;;;;4988923;28;20042;-49
2022/04/08 06:12:10;;;;;;;11.85;4.53;;;14.80;99.90;;;;;;4975726;28;20178;-50
2022/04/08 06:14:35;;;;;;;7.55;4.53;;;14.80;99.90;;;;;;4992471;28;20117;-50
2022/04/08 06:17:01;;;;;;;8.40;4.60;;;14.90;99.90;;;;;;4988979;28;20502;-50
2022/04/08 06:19:27;;;;;;;7.57;5.05;;;15.00;99.90;;;;;;4993800;28;20034;-47
2022/04/08 06:21:54;;;;;;;9.23;5.03;;;15.10;99.90;;;;;;4994266;28;20036;-50
2022/04/08 06:24:20;;;;;;;6.20;4.28;;;15.20;99.90;;;;;;4988910;28;20051;-49
2022/04/08 06:26:46;;;;;;;19.48;6.30;;;15.30;99.90;;;;;;4990840;28;20049;-49
2022/04/08 06:29:11;;;;;;;8.65;4.53;;;15.40;99.90;;;;;;4994322;28;20030;-47
2022/04/08 06:31:37;;;;;;;19.08;6.35;;;15.50;99.90;;;;;;4993360;28;20413;-50
2022/04/08 06:34:03;;;;;;;15.90;5.28;;;15.80;99.90;;;;;;4993075;28;20548;-49
2022/04/08 06:36:29;;;;;;;8.93;5.05;;;16.00;99.90;;;;;;4993223;28;21496;-48
2022/04/08 06:38:55;;;;;;;22.40;6.70;;;16.10;99.90;;;;;;4987495;28;20042;-49
2022/04/08 06:41:21;;;;;;;13.02;5.25;;;16.30;99.90;;;;;;4993274;28;20121;-48
2022/04/08 06:43:47;;;;;;;17.30;6.65;;;;;;;;;;4993869;28;20109;-49
2022/04/08 06:46:13;;;;;;;8.93;4.70;;;;;;;;;;4993382;28;20117;-49
2022/04/08 06:48:39;;;;;;;9.82;6.07;;;16.50;99.90;;;;;;4993440;28;20431;-49
2022/04/08 06:51:05;;;;;;;8.90;5.38;;;;;;;;;;4976980;28;20133;-49
2022/04/08 06:53:32;;;;;;;13.00;5.97;;;16.80;99.90;;;;;;4993193;28;20057;-48
2022/04/08 06:56:01;;;;;;;16.33;7.03;;;;;;;;;;4993015;28;20042;-49
2022/04/08 06:58:27;;;;;;;12.88;5.65;;;17.00;99.90;;;;;;4993387;28;20034;-48
2022/04/08 07:00:54;;;;;;;10.70;6.07;;;17.00;99.90;;;;;;4991745;28;20038;-50
2022/04/08 07:03:20;;;;;;;8.70;5.20;;;17.30;99.90;;;;;;4993002;28;20076;-50
2022/04/08 07:05:46;;;;;;;10.48;4.97;;;17.50;99.90;;;;;;4982524;28;20118;-50
2022/04/08 07:08:11;;;;;;;12.70;6.63;;;17.60;99.90;;;;;;4960560;28;20078;-50
2022/04/08 07:10:38;;;;;;;13.18;4.97;;;;;;;;;;4992517;28;20030;-48
2022/04/08 07:13:05;;;;;;;10.10;6.95;;;;;;;;;;4992855;28;20042;-48
2022/04/08 07:15:31;;;;;;;7.43;3.97;;;18.00;99.90;;;;;;4990529;28;20089;-45
2022/04/08 07:17:56;;;;;;;9.75;3.63;;;17.80;99.90;;;;;;4990371;28;20114;-46
2022/04/08 07:20:22;;;;;;;5.78;3.00;;;17.70;99.90;;;;;;4990370;28;20042;-46
2022/04/08 07:22:48;;;;;;;6.70;3.10;;;17.70;99.90;;;;;;4993079;28;20022;-48
2022/04/08 07:25:15;;;;;;;7.45;2.70;;;17.70;99.90;;;;;;4993488;28;20030;-47
2022/04/08 07:27:49;;;;;;;6.10;3.08;;;17.80;99.90;;;;;;4992494;28;20086;-45
2022/04/08 07:30:20;;;;;;;8.52;3.63;;;18.00;99.90;;;;;;4986155;28;20081;-46
2022/04/08 07:32:48;;;;;;;11.63;3.53;;;17.90;99.90;;;;;;4992514;28;20393;-45
2022/04/08 07:35:14;;;;;;;4.32;2.22;;;18.10;99.90;;;;;;4992854;28;20042;-46
2022/04/08 07:37:40;;;;;;;5.88;2.63;;;18.10;99.90;;;;;;4991189;28;20027;-47
2022/04/08 07:40:07;;;;;;;4.72;2.58;;;18.20;99.90;;;;;;4984397;28;20038;-47
2022/04/08 07:42:33;;;;;;;6.22;2.70;;;18.20;99.90;;;;;;4953470;28;20039;-47
2022/04/08 07:44:59;;;;;;;5.35;2.50;;;18.40;99.90;;;;;;4937519;28;20035;-47
2022/04/08 07:47:28;;;;;;;6.68;2.88;;;18.50;99.90;;;;;;4920364;28;20105;-47
2022/04/08 07:50:00;;;;;;;6.25;3.00;;;18.50;99.90;;;;;;4918877;28;20303;-46
2022/04/08 07:52:26;;;;;;;;;;;18.70;99.90;;;;;;4947000;29;20152;-45
2022/04/08 07:54:54;;;;;;;6.72;2.85;;;18.80;99.90;;;;;;4950894;29;19972;-46
2022/04/08 07:57:20;;;;;;;6.10;2.78;;;;;;;;;;4938085;28;20062;-53
2022/04/08 07:59:46;;;;;;;7.03;3.10;;;;;;;;;;4938133;28;20107;-46
2022/04/08 08:02:12;;;;;;;7.45;2.92;;;;;;;;;;4948119;28;20044;-46
2022/04/08 08:04:39;;;;;;;4.78;2.40;;;;;;;;;;4945956;29;20034;-45
2022/04/08 08:07:05;;;;;;;8.98;3.28;;;;;;;;;;4948456;29;20074;-46
2022/04/08 08:09:34;;;;;;;5.18;2.83;;;;;;;;;;4937871;29;20189;-46
2022/04/08 08:12:03;;;;;;;7.32;2.80;;;20.30;99.90;;;;;;4949515;29;20063;-48
2022/04/08 08:14:29;;;;;;;9.68;3.85;;;20.20;99.90;;;;;;4936949;29;20039;-44
2022/04/08 08:16:55;;;;;;;5.95;2.30;;;20.30;99.90;;;;;;4946182;29;20035;-45
2022/04/08 08:19:21;;;;;;;5.75;2.20;;;20.10;99.30;;;;;;4937577;28;20423;-47
2022/04/08 08:21:46;;;;;;;7.20;2.70;;;20.30;99.20;;;;;;4965330;28;20023;-51
2022/04/08 08:24:13;;;;;;;7.05;3.58;;;20.80;99.90;;;;;;4984234;28;20038;-45
2022/04/08 08:26:38;;;;;;;8.80;3.20;;;21.00;99.90;;;;;;4993619;28;20034;-42
2022/04/08 08:29:04;;;;;;;7.78;2.92;;;21.20;99.90;;;;;;4996966;28;20038;-45
2022/04/08 08:31:30;;;;;;;8.65;3.10;;;21.50;99.50;;;;;;4995169;28;20112;-46
2022/04/08 08:33:56;;;;;;;4.40;2.90;;;;;;;;;;4992650;28;20029;-46
2022/04/08 08:36:22;;;;;;;25.42;4.75;;;22.50;98.10;;;;;;4995874;28;20026;-46
2022/04/08 08:38:49;;;;;;;7.63;2.50;;;22.70;97.50;;;;;;4993865;28;20038;-47
2022/04/08 08:41:18;;;;;;;8.75;3.42;;;22.30;96.70;;;;;;4992553;28;20030;-46
2022/04/08 08:43:45;;;;;;;6.60;2.40;;;22.40;96.90;;;;;;4975638;28;20042;-46
2022/04/08 08:46:12;;;;;;;5.18;2.47;;;22.40;95.20;;;;;;4990293;28;20038;-47
2022/04/08 08:48:38;;;;;;;5.88;2.50;;;22.10;95.10;;;;;;4993745;28;20022;-46
2022/04/08 08:51:06;;;;;;;5.13;2.35;;;22.10;95.10;;;;;;4994715;28;20039;-46
2022/04/08 08:53:33;;;;;;;3.90;1.83;;;22.50;93.90;;;;;;4994425;28;20037;-46
2022/04/08 08:56:00;;;;;;;4.72;2.30;;;22.70;93.20;;;;;;4992066;28;20023;-46
2022/04/08 08:58:29;;;;;;;3.53;2.10;;;22.80;95.00;;;;;;4994022;28;20030;-46
2022/04/08 09:00:56;;;;;;;5.47;1.73;;;22.50;93.20;;;;;;4991701;28;20030;-46
2022/04/08 09:03:28;;;;;;;4.15;2.10;;;22.60;93.10;;;;;;4992182;28;20022;-46
2022/04/08 09:05:53;;;;;;;;;;;22.20;92.60;;;;;;4993902;28;20042;-46
2022/04/08 09:08:19;;;;;;;5.90;2.67;;;22.50;92.60;;;;;;4992803;28;19909;-46
2022/04/08 09:10:48;;;;;;;3.90;2.05;;;22.80;93.40;;;;;;4993046;28;20022;-46
2022/04/08 09:13:21;;;;;;;4.63;2.50;;;22.20;92.60;;;;;;4990465;28;20028;-46
2022/04/08 09:16:00;;;;;;;10.40;2.80;;;21.80;93.50;;;;;;5002392;28;20038;-47
2022/04/08 09:18:32;;;;;;;8.23;2.53;;;22.20;94.00;;;;;;4991804;28;20109;-46
2022/04/08 09:20:58;;;;;;;5.97;2.83;;;;;;;;;;4973829;28;20038;-47
2022/04/08 09:23:25;;;;;;;6.90;2.42;;;;;;;;;;4990548;28;20054;-46
2022/04/08 09:26:02;;;;;;;6.13;2.55;;;24.10;99.90;;;;;;4993455;28;20030;-46
2022/04/08 09:28:36;;;;;;;4.78;2.83;;;;;;;;;;4993518;28;20034;-46
2022/04/08 09:31:02;;;;;;;4.90;2.20;;;;;;;;;;4992846;28;20038;-46
2022/04/08 09:33:29;;;;;;;3.95;1.90;;;24.40;99.90;;;;;;4994432;28;20051;-46
2022/04/08 09:35:56;;;;;;;5.18;1.88;;;;;;;;;;4937195;28;20047;-46
2022/04/08 09:38:25;;;;;;;5.22;2.38;;;;;;;;;;4937422;28;20085;-46
2022/04/08 09:40:58;;;;;;;8.68;3.33;;;25.10;87.00;;;;;;4962735;28;20041;-46
2022/04/08 09:43:30;;;;;;;10.55;3.38;;;;;;;;;;4961537;28;20035;-46
2022/04/08 09:46:11;;;;;;;5.90;3.15;;;;;;;;;;4963791;28;20043;-47
2022/04/08 09:48:37;;;;;;;9.53;2.93;;;26.10;91.70;;;;;;4946645;28;20046;-46
2022/04/08 09:51:04;;;;;;;7.90;2.40;;;25.90;89.50;;;;;;4960385;28;20606;-46
2022/04/08 09:53:30;;;;;;;7.60;4.38;;;25.10;87.70;;;;;;4958657;28;20035;-46
2022/04/08 09:55:57;;;;;;;6.28;2.53;;;25.30;94.30;;;;;;4912152;28;20590;-46
2022/04/08 09:58:25;;;;;;;4.30;2.70;;;25.30;93.60;;;;;;4923454;28;20094;-46
2022/04/08 10:00:51;;;;;;;4.55;2.30;;;25.80;89.90;;;;;;4963407;28;20046;-46
2022/04/08 10:03:18;;;;;;;5.30;2.40;;;26.00;91.10;;;;;;4957607;28;20058;-46
2022/04/08 10:05:46;;;;;;;9.23;2.83;;;;;;;;;;4959088;28;20527;-46
2022/04/08 10:08:12;;;;;;;6.85;2.53;;;26.20;85.50;;;;;;4992338;28;20039;-46
2022/04/08 10:10:48;;;;;;;8.60;3.08;;;25.70;86.40;;;;;;4968757;28;20069;-46
2022/04/08 10:13:58;;;;;;;5.82;2.50;;;25.80;85.50;;;;;;4987167;28;20042;-46
2022/04/08 10:16:24;;;;;;;5.28;2.10;;;25.70;85.30;;;;;;4949308;28;20046;-46
2022/04/08 10:18:54;;;;;;;6.63;3.38;;;;;;;;;;4948144;29;20027;-47
2022/04/08 10:21:21;;;;;;;5.47;2.63;;;;;;;;;;4933384;29;20044;-47
2022/04/08 10:23:51;;;;;;;9.07;3.20;;;;;;;;;;4948243;29;20037;-46
2022/04/08 10:26:18;;;;;;;7.80;3.17;;;;;;;;;;4949075;29;20114;-46
2022/04/08 10:28:45;;;;;;;4.32;2.45;;;;;;;;;;4931685;29;20082;-47
2022/04/08 10:31:15;;;;;;;5.43;2.78;;;;;;;;;;4949480;29;20471;-46
2022/04/08 10:33:47;;;;;;;4.28;2.80;;;;;;;;;;4948896;29;20039;-46
2022/04/08 10:36:13;;;;;;;8.10;3.70;;;;;;;;;;4916769;29;20597;-46
2022/04/08 10:38:40;;;;;;;7.60;2.90;;;;;;;;;;4920838;29;20050;-47
2022/04/08 10:41:09;;;;;;;4.90;2.55;;;;;;;;;;4950058;29;20038;-45
2022/04/08 10:43:48;;;;;;;5.20;2.40;;;;;;;;;;4949777;29;20039;-47
2022/04/08 10:46:14;;;;;;;6.30;3.10;;;;;;;;;;4951828;29;20039;-47
2022/04/08 10:48:41;;;;;;;13.75;3.97;;;;;;;;;;4918529;29;20040;-46
2022/04/08 10:51:11;;;;;;;8.00;3.10;;;;;;;;;;4932618;29;20126;-46
2022/04/08 10:53:41;;;;;;;6.95;2.47;;;26.90;80.50;;;;;;4970965;28;20043;-46
2022/04/08 10:56:13;;;;;;;7.60;2.42;;;27.20;82.00;;;;;;4973566;28;20031;-47
2022/04/08 10:58:46;;;;;;;6.47;2.72;;;;;;;;;;4973461;28;20482;-46
2022/04/08 11:01:17;;;;;;;7.47;3.10;;;27.90;81.00;;;;;;4987165;28;20039;-46
2022/04/08 11:03:48;;;;;;;7.32;3.00;;;27.20;80.80;;;;;;4973411;28;20042;-48
2022/04/08 11:06:19;;;;;;;5.63;2.88;;;27.30;80.60;;;;;;4973132;28;20062;-46
2022/04/08 11:08:45;;;;;;;6.38;3.13;;;27.70;82.20;;;;;;4973644;28;20042;-46
2022/04/08 11:11:11;;;;;;;6.88;3.47;;;27.20;82.20;;;;;;4973488;28;20039;-47
2022/04/08 11:13:41;;;;;;;4.00;2.47;;;27.30;81.60;;;;;;4973201;28;20085;-46
2022/04/08 11:16:07;;;;;;;5.30;2.70;;;26.60;80.70;;;;;;4973595;28;20364;-46
2022/04/08 11:18:33;;;;;;;19.63;4.22;;;27.30;81.00;;;;;;4987258;28;20118;-46
2022/04/08 11:20:59;;;;;;;5.28;2.30;;;27.60;80.90;;;;;;4973189;28;20501;-46
2022/04/08 11:23:30;;;;;;;5.43;2.50;;;;;;;;;;4970996;28;20038;-47
2022/04/08 11:25:56;;;;;;;7.68;2.70;;;28.40;80.10;;;;;;4973382;28;20038;-46
2022/04/08 11:28:23;;;;;;;8.25;3.40;;;28.50;79.00;;;;;;4987216;28;20038;-47
2022/04/08 11:30:58;;;;;;;7.88;3.05;;;28.20;79.30;;;;;;4987038;28;20039;-46
2022/04/08 11:33:25;;;;;;;4.78;2.38;;;28.70;80.90;;;;;;4973207;28;20035;-47
2022/04/08 11:35:56;;;;;;;9.38;3.05;;;29.00;80.10;;;;;;4986981;28;20035;-46
2022/04/08 11:38:23;;;;;;;9.52;4.38;;;;;;;;;;4973195;28;20167;-46
2022/04/08 11:40:49;;;;;;;9.60;2.92;;;29.90;92.30;;;;;;4954831;28;20483;-47
2022/04/08 11:43:16;;;;;;;6.13;2.42;;;29.40;79.00;;;;;;4954827;28;20038;-46
2022/04/08 11:45:43;;;;;;;5.22;2.30;;;29.20;77.10;;;;;;4973048;28;20647;-46
2022/04/08 11:48:17;;;;;;;6.53;3.20;;;28.90;78.10;;;;;;4973047;28;20035;-46
2022/04/08 11:50:43;;;;;;;5.03;2.90;;;28.80;79.00;;;;;;4973129;28;20026;-46
2022/04/08 11:53:23;;;;;;;6.50;3.50;;;29.00;80.40;;;;;;4954782;28;20041;-47
2022/04/08 11:55:56;;;;;;;9.57;2.97;;;28.80;80.10;;;;;;4989606;28;20030;-47
2022/04/08 11:58:23;;;;;;;7.32;2.80;;;28.50;78.50;;;;;;4992144;28;20038;-46
2022/04/08 12:00:50;;;;;;;7.60;3.30;;;28.80;79.80;;;;;;4990655;28;20077;-45
2022/04/08 12:03:29;;;;;;;8.45;3.45;;;28.50;77.30;;;;;;4958407;28;20502;-47
2022/04/08 12:05:55;;;;;;;10.20;3.20;;;28.50;78.80;;;;;;4991535;28;20031;-47
2022/04/08 12:08:22;;;;;;;4.22;2.30;;;28.60;80.10;;;;;;4992753;28;20489;-46
2022/04/08 12:10:53;;;;;;;4.90;1.77;;;28.60;78.30;;;;;;4995145;28;20030;-46
2022/04/08 12:13:21;;;;;;;7.35;2.85;;;28.20;77.10;;;;;;4995399;28;20113;-46
2022/04/08 12:15:49;;;;;;;4.85;2.47;;;;;;;;;;4995254;28;20069;-46
2022/04/08 12:18:22;;;;;;;5.47;2.33;;;27.90;78.60;;;;;;4993196;28;20490;-45
2022/04/08 12:20:52;;;;;;;6.38;2.50;;;;;;;;;;4992663;28;20465;-45
2022/04/08 12:23:21;;;;;;;6.72;2.60;;;27.50;77.70;;;;;;4995027;28;20034;-46
2022/04/08 12:25:52;;;;;;;6.13;3.08;;;27.60;78.30;;;;;;4994020;28;20034;-47
2022/04/08 12:28:20;;;;;;;4.18;2.17;;;;;;;;;;4993172;28;20038;-46
2022/04/08 12:30:47;;;;;;;7.03;2.40;;;27.70;75.50;;;;;;4995223;28;20135;-45
2022/04/08 12:33:13;;;;;;;5.75;2.45;;;27.90;76.20;;;;;;4995799;28;20038;-47
2022/04/08 12:35:39;;;;;;;15.68;5.20;;;;;;;;;;4993244;28;20030;-46
2022/04/08 12:38:04;;;;;;;8.75;3.85;;;28.00;82.30;;;;;;4995570;28;20085;-45
2022/04/08 12:40:34;;;;;;;9.98;4.13;;;27.70;83.00;;;;;;4960896;28;20038;-46
2022/04/08 12:43:02;;;;;;;6.60;3.22;;;28.00;87.00;;;;;;4976664;28;20113;-46
2022/04/08 12:45:28;;;;;;;6.53;2.50;;;27.90;82.40;;;;;;4961356;28;20069;-45
2022/04/08 12:47:55;;;;;;;9.15;2.42;;;28.10;86.00;;;;;;4995253;28;20088;-46
2022/04/08 12:50:20;;;;;;;6.82;2.85;;;27.90;85.30;;;;;;4993197;28;20038;-46
2022/04/08 12:52:46;;;;;;;10.85;2.45;;;26.90;76.10;;;;;;4995218;28;20033;-46
2022/04/08 12:55:12;;;;;;;4.75;2.25;;;26.50;77.90;;;;;;4944319;28;20038;-46
2022/04/08 12:57:38;;;;;;;5.68;2.33;;;26.20;77.60;;;;;;5009225;28;20065;-45
2022/04/08 13:00:11;;;;;;;6.35;2.20;;;26.40;79.00;;;;;;4994945;28;20022;-45